createdAt,value
2015-10-08T00:00:50.563Z,87
2015-10-08T00:01:51.347Z,87
2015-10-08T00:02:52.163Z,87
2015-10-08T00:03:53.883Z,87
2015-10-08T00:04:54.652Z,87
2015-10-08T00:05:55.405Z,87
2015-10-08T00:06:56.174Z,87
2015-10-08T00:07:56.941Z,87
2015-10-08T00:08:57.694Z,87
2015-10-08T00:09:58.463Z,87
2015-10-08T00:10:59.231Z,87
2015-10-08T00:11:59.984Z,87
2015-10-08T00:13:00.799Z,87
2015-10-08T00:14:02.552Z,87
2015-10-08T00:15:03.304Z,87
2015-10-08T00:16:04.057Z,87
2015-10-08T00:17:05.075Z,87
2015-10-08T00:18:37.671Z,87
2015-10-08T00:19:06.862Z,87
2015-10-08T00:20:07.630Z,87
2015-10-08T00:21:08.647Z,87
2015-10-08T00:22:09.666Z,87
2015-10-08T00:23:10.747Z,88
2015-10-08T00:24:12.483Z,88
2015-10-08T00:25:13.753Z,88
2015-10-08T00:26:15.022Z,88
2015-10-08T00:27:16.305Z,88
2015-10-08T00:28:17.588Z,88
2015-10-08T00:29:18.857Z,88
2015-10-08T00:30:20.396Z,88
2015-10-08T00:31:22.180Z,88
2015-10-08T00:32:23.964Z,88
2015-10-08T00:33:25.810Z,88
2015-10-08T00:34:27.547Z,88
2015-10-08T00:35:29.332Z,88
2015-10-08T00:36:31.116Z,88
2015-10-08T00:37:32.915Z,88
2015-10-08T00:38:34.699Z,88
2015-10-08T00:39:36.483Z,88
2015-10-08T00:40:38.283Z,88
2015-10-08T00:42:11.879Z,88
2015-10-08T00:42:41.851Z,88
2015-10-08T00:43:43.696Z,88
2015-10-08T00:44:45.434Z,88
2015-10-08T00:45:47.203Z,89
2015-10-08T00:46:49.268Z,89
2015-10-08T00:47:51.239Z,89
2015-10-08T00:48:53.336Z,89
2015-10-08T00:49:55.385Z,89
2015-10-08T00:50:57.420Z,89
2015-10-08T00:51:59.485Z,88
2015-10-08T00:53:01.284Z,88
2015-10-08T00:54:03.131Z,88
2015-10-08T00:55:04.852Z,88
2015-10-08T00:56:06.652Z,88
2015-10-08T00:57:08.436Z,88
2015-10-08T00:58:10.205Z,89
2015-10-08T00:59:12.254Z,89
2015-10-08T01:00:46.118Z,89
2015-10-08T01:01:16.353Z,89
2015-10-08T01:02:50.218Z,89
2015-10-08T01:03:20.687Z,89
2015-10-08T01:04:23.048Z,89
2015-10-08T01:05:24.786Z,89
2015-10-08T01:06:26.836Z,89
2015-10-08T01:07:29.135Z,89
2015-10-08T01:08:31.434Z,89
2015-10-08T01:09:33.735Z,89
2015-10-08T01:10:35.784Z,89
2015-10-08T01:11:38.084Z,89
2015-10-08T01:12:40.384Z,89
2015-10-08T01:13:42.683Z,89
2015-10-08T01:14:45.044Z,89
2015-10-08T01:15:46.766Z,89
2015-10-08T01:16:49.068Z,89
2015-10-08T01:18:23.197Z,89
2015-10-08T01:18:53.683Z,89
2015-10-08T01:19:55.983Z,89
2015-10-08T01:21:30.111Z,89
2015-10-08T01:22:00.582Z,89
2015-10-08T01:23:02.882Z,89
2015-10-08T01:24:05.182Z,89
2015-10-08T01:25:07.544Z,89
2015-10-08T01:26:09.281Z,89
2015-10-08T01:27:11.581Z,89
2015-10-08T01:28:10.037Z,89
2015-10-08T01:29:08.508Z,89
2015-10-08T01:30:06.945Z,89
2015-10-08T01:31:05.402Z,89
2015-10-08T01:32:03.858Z,89
2015-10-08T01:33:06.157Z,89
2015-10-08T01:34:08.456Z,89
2015-10-08T01:35:10.819Z,89
2015-10-08T01:36:12.555Z,89
2015-10-08T01:37:14.855Z,89
2015-10-08T01:38:17.155Z,89
2015-10-08T01:39:19.457Z,89
2015-10-08T01:40:21.757Z,89
2015-10-08T01:41:24.071Z,89
2015-10-08T01:42:26.371Z,89
2015-10-08T01:43:28.671Z,89
2015-10-08T01:44:30.721Z,89
2015-10-08T01:45:33.068Z,89
2015-10-08T01:46:34.805Z,89
2015-10-08T01:47:37.104Z,89
2015-10-08T01:48:39.404Z,89
2015-10-08T01:49:41.469Z,89
2015-10-08T01:51:15.315Z,89
2015-10-08T01:51:45.537Z,89
2015-10-08T01:52:47.587Z,89
2015-10-08T01:54:21.465Z,89
2015-10-08T01:55:23.513Z,89
2015-10-08T01:55:53.798Z,89
2015-10-08T01:56:55.535Z,88
2015-10-08T01:57:57.335Z,88
2015-10-08T01:58:59.119Z,88
2015-10-08T02:00:00.903Z,88
2015-10-08T02:01:02.687Z,88
2015-10-08T02:02:04.486Z,88
2015-10-08T02:03:06.270Z,88
2015-10-08T02:04:39.882Z,88
2015-10-08T02:05:09.854Z,88
2015-10-08T02:06:11.701Z,88
2015-10-08T02:07:13.437Z,88
2015-10-08T02:08:14.971Z,88
2015-10-08T02:09:16.756Z,88
2015-10-08T02:10:18.539Z,88
2015-10-08T02:11:20.339Z,88
2015-10-08T02:12:22.123Z,88
2015-10-08T02:13:23.923Z,88
2015-10-08T02:14:25.707Z,88
2015-10-08T02:15:27.490Z,88
2015-10-08T02:16:29.353Z,88
2015-10-08T02:17:31.090Z,88
2015-10-08T02:18:32.873Z,88
2015-10-08T02:19:34.658Z,88
2015-10-08T02:20:36.473Z,88
2015-10-08T02:21:38.242Z,88
2015-10-08T02:22:40.025Z,88
2015-10-08T02:23:41.809Z,88
2015-10-08T02:25:15.424Z,88
2015-10-08T02:25:45.392Z,88
2015-10-08T02:27:19.070Z,88
2015-10-08T02:28:50.761Z,88
2015-10-08T02:29:52.545Z,88
2015-10-08T02:30:54.328Z,88
2015-10-08T02:31:56.081Z,88
2015-10-08T02:32:57.912Z,88
2015-10-08T02:33:59.697Z,88
2015-10-08T02:35:01.511Z,88
2015-10-08T02:36:03.280Z,88
2015-10-08T02:37:05.126Z,88
2015-10-08T02:38:06.864Z,88
2015-10-08T02:39:08.382Z,88
2015-10-08T02:40:10.166Z,88
2015-10-08T02:41:11.966Z,88
2015-10-08T02:42:13.750Z,88
2015-10-08T02:43:15.533Z,88
2015-10-08T02:44:17.333Z,88
2015-10-08T02:45:19.132Z,88
2015-10-08T02:46:20.917Z,88
2015-10-08T02:47:22.763Z,88
2015-10-08T02:48:24.485Z,88
2015-10-08T02:49:26.284Z,88
2015-10-08T02:50:28.068Z,88
2015-10-08T02:51:29.853Z,88
2015-10-08T02:52:31.652Z,88
2015-10-08T02:53:33.435Z,88
2015-10-08T02:54:35.220Z,88
2015-10-08T02:55:37.019Z,88
2015-10-08T02:56:38.803Z,88
2015-10-08T02:57:40.649Z,88
2015-10-08T02:58:42.372Z,88
2015-10-08T02:59:44.171Z,88
2015-10-08T03:00:45.955Z,88
2015-10-08T03:01:47.739Z,88
2015-10-08T03:02:49.523Z,88
2015-10-08T03:03:51.321Z,88
2015-10-08T03:04:53.107Z,88
2015-10-08T03:05:54.893Z,88
2015-10-08T03:06:56.707Z,88
2015-10-08T03:07:58.523Z,88
2015-10-08T03:09:00.261Z,88
2015-10-08T03:10:02.045Z,88
2015-10-08T03:11:03.844Z,88
2015-10-08T03:12:05.629Z,88
2015-10-08T03:13:07.429Z,88
2015-10-08T03:14:09.213Z,88
2015-10-08T03:15:10.996Z,88
2015-10-08T03:16:12.795Z,88
2015-10-08T03:17:14.564Z,88
2015-10-08T03:18:16.427Z,88
2015-10-08T03:19:18.132Z,89
2015-10-08T03:20:20.213Z,89
2015-10-08T03:21:22.231Z,89
2015-10-08T03:22:24.265Z,89
2015-10-08T03:23:26.331Z,89
2015-10-08T03:25:00.177Z,89
2015-10-08T03:25:30.398Z,89
2015-10-08T03:26:32.465Z,89
2015-10-08T03:28:06.342Z,89
2015-10-08T03:28:36.641Z,89
2015-10-08T03:29:38.347Z,89
2015-10-08T03:30:40.631Z,89
2015-10-08T03:31:42.931Z,89
2015-10-08T03:32:44.980Z,89
2015-10-08T03:33:47.279Z,89
2015-10-08T03:34:49.595Z,89
2015-10-08T03:35:51.894Z,89
2015-10-08T03:36:54.178Z,89
2015-10-08T03:37:56.494Z,89
2015-10-08T03:38:58.856Z,89
2015-10-08T03:40:00.593Z,89
2015-10-08T03:41:02.893Z,89
2015-10-08T03:42:05.192Z,89
2015-10-08T03:43:07.492Z,89
2015-10-08T03:44:09.806Z,89
2015-10-08T03:45:08.247Z,89
2015-10-08T03:46:10.547Z,89
2015-10-08T03:47:12.862Z,89
2015-10-08T03:48:15.162Z,89
2015-10-08T03:49:17.508Z,89
2015-10-08T03:50:19.245Z,89
2015-10-08T03:51:17.701Z,89
2015-10-08T03:52:16.157Z,89
2015-10-08T03:53:14.628Z,89
2015-10-08T03:54:13.084Z,89
2015-10-08T03:55:43.353Z,89
2015-10-08T03:56:09.981Z,89
2015-10-08T03:57:12.297Z,89
2015-10-08T03:58:14.595Z,89
2015-10-08T03:59:16.957Z,89
2015-10-08T04:00:18.694Z,89
2015-10-08T04:01:20.978Z,89
2015-10-08T04:02:23.294Z,89
2015-10-08T04:03:25.328Z,89
2015-10-08T04:04:27.362Z,89
2015-10-08T04:05:29.411Z,89
2015-10-08T04:06:31.477Z,88
2015-10-08T04:07:33.261Z,89
2015-10-08T04:09:07.123Z,89
2015-10-08T04:09:37.391Z,89
2015-10-08T04:10:39.144Z,89
2015-10-08T04:11:41.210Z,88
2015-10-08T04:12:42.728Z,88
2015-10-08T04:13:44.527Z,88
2015-10-08T04:14:46.327Z,88
2015-10-08T04:15:48.096Z,88
2015-10-08T04:16:49.911Z,88
2015-10-08T04:17:51.679Z,88
2015-10-08T04:18:53.463Z,88
2015-10-08T04:19:55.325Z,88
2015-10-08T04:20:57.062Z,88
2015-10-08T04:21:58.847Z,88
2015-10-08T04:23:32.458Z,88
2015-10-08T04:24:02.430Z,88
2015-10-08T04:25:04.214Z,88
2015-10-08T04:26:05.998Z,88
2015-10-08T04:27:07.797Z,88
2015-10-08T04:28:09.566Z,88
2015-10-08T04:29:11.302Z,88
2015-10-08T04:30:13.212Z,88
2015-10-08T04:31:14.949Z,88
2015-10-08T04:32:16.749Z,88
2015-10-08T04:33:50.364Z,88
2015-10-08T04:34:20.317Z,88
2015-10-08T04:35:22.101Z,88
2015-10-08T04:36:55.731Z,88
2015-10-08T04:37:25.684Z,88
2015-10-08T04:38:59.298Z,88
2015-10-08T04:39:29.267Z,88
2015-10-08T04:40:31.114Z,88
2015-10-08T04:41:32.851Z,88
2015-10-08T04:42:34.634Z,88
2015-10-08T04:43:36.419Z,88
2015-10-08T04:44:38.203Z,88
2015-10-08T04:45:40.003Z,88
2015-10-08T04:46:41.787Z,88
2015-10-08T04:47:43.570Z,88
2015-10-08T04:48:45.370Z,88
2015-10-08T04:49:47.138Z,88
2015-10-08T04:50:48.985Z,88
2015-10-08T04:51:50.723Z,88
2015-10-08T04:52:52.506Z,88
2015-10-08T04:53:54.306Z,88
2015-10-08T04:54:55.839Z,88
2015-10-08T04:55:57.623Z,88
2015-10-08T04:56:59.410Z,88
2015-10-08T04:58:00.960Z,88
2015-10-08T04:59:02.478Z,88
2015-10-08T05:00:04.012Z,88
2015-10-08T05:01:05.593Z,87
2015-10-08T05:02:07.331Z,88
2015-10-08T05:03:08.849Z,88
2015-10-08T05:04:10.383Z,88
2015-10-08T05:05:11.917Z,88
2015-10-08T05:06:13.450Z,88
2015-10-08T05:07:14.985Z,88
2015-10-08T05:08:16.784Z,88
2015-10-08T05:09:18.319Z,88
2015-10-08T05:10:19.837Z,88
2015-10-08T05:11:21.683Z,88
2015-10-08T05:12:23.420Z,88
2015-10-08T05:13:25.204Z,88
2015-10-08T05:14:58.816Z,88
2015-10-08T05:15:28.788Z,88
2015-10-08T05:16:30.571Z,88
2015-10-08T05:17:32.371Z,88
2015-10-08T05:18:34.155Z,88
2015-10-08T05:19:35.924Z,88
2015-10-08T05:20:37.724Z,88
2015-10-08T05:21:39.570Z,88
2015-10-08T05:22:41.291Z,88
2015-10-08T05:24:14.919Z,88
2015-10-08T05:24:44.891Z,88
2015-10-08T05:25:46.659Z,88
2015-10-08T05:26:48.458Z,88
2015-10-08T05:28:22.055Z,88
2015-10-08T05:28:52.027Z,88
2015-10-08T05:29:53.811Z,88
2015-10-08T05:30:55.594Z,88
2015-10-08T05:31:57.457Z,88
2015-10-08T05:32:59.178Z,88
2015-10-08T05:34:00.963Z,88
2015-10-08T05:35:02.746Z,88
2015-10-08T05:36:04.546Z,88
2015-10-08T05:37:06.346Z,88
2015-10-08T05:38:39.692Z,88
2015-10-08T05:39:09.398Z,88
2015-10-08T05:40:10.931Z,88
2015-10-08T05:41:12.715Z,88
2015-10-08T05:42:14.562Z,88
2015-10-08T05:43:16.283Z,88
2015-10-08T05:44:18.068Z,88
2015-10-08T05:45:19.868Z,88
2015-10-08T05:46:21.651Z,88
2015-10-08T05:47:23.456Z,88
2015-10-08T05:48:25.239Z,88
2015-10-08T05:49:58.839Z,88
2015-10-08T05:50:28.808Z,88
2015-10-08T05:51:30.607Z,88
2015-10-08T05:53:34.175Z,88
2015-10-08T05:54:35.709Z,88
2015-10-08T05:55:37.243Z,88
2015-10-08T05:56:38.783Z,88
2015-10-08T05:57:40.300Z,88
2015-10-08T05:58:41.834Z,88
2015-10-08T05:59:43.368Z,88
2015-10-08T06:00:44.902Z,88
2015-10-08T06:01:46.436Z,88
2015-10-08T06:02:48.033Z,88
2015-10-08T06:03:49.754Z,88
2015-10-08T06:04:51.038Z,88
2015-10-08T06:05:52.307Z,87
2015-10-08T06:06:53.575Z,87
2015-10-08T06:08:26.674Z,87
2015-10-08T06:08:56.127Z,87
2015-10-08T06:09:57.427Z,88
2015-10-08T06:10:58.946Z,88
2015-10-08T06:12:00.214Z,87
2015-10-08T06:13:01.560Z,87
2015-10-08T06:14:03.282Z,87
2015-10-08T06:15:04.550Z,87
2015-10-08T06:16:05.834Z,88
2015-10-08T06:17:07.119Z,88
2015-10-08T06:18:08.402Z,88
2015-10-08T06:19:09.671Z,88
2015-10-08T06:20:42.769Z,88
2015-10-08T06:21:12.223Z,88
2015-10-08T06:22:45.307Z,88
2015-10-08T06:23:14.822Z,88
2015-10-08T06:24:16.559Z,88
2015-10-08T06:25:17.843Z,88
2015-10-08T06:26:50.926Z,87
2015-10-08T06:27:19.879Z,87
2015-10-08T06:28:20.633Z,87
2015-10-08T06:29:21.402Z,87
2015-10-08T06:30:22.154Z,86
2015-10-08T06:31:22.406Z,86
2015-10-08T06:32:22.659Z,86
2015-10-08T06:33:23.224Z,87
2015-10-08T06:34:24.945Z,87
2015-10-08T06:35:25.714Z,87
2015-10-08T06:36:26.498Z,86
2015-10-08T06:37:26.720Z,86
2015-10-08T06:38:26.973Z,86
2015-10-08T06:39:27.226Z,86
2015-10-08T06:40:27.728Z,86
2015-10-08T06:41:27.995Z,86
2015-10-08T06:43:00.064Z,86
2015-10-08T06:43:28.548Z,86
2015-10-08T06:44:30.286Z,86
2015-10-08T06:45:30.522Z,86
2015-10-08T06:46:30.776Z,86
2015-10-08T06:47:31.028Z,86
2015-10-08T06:48:31.280Z,86
2015-10-08T06:49:31.533Z,86
2015-10-08T06:50:31.895Z,86
2015-10-08T06:52:32.275Z,86
2015-10-08T06:53:32.591Z,86
2015-10-08T06:54:34.328Z,85
2015-10-08T06:55:34.049Z,86
2015-10-08T06:56:34.318Z,86
2015-10-08T06:57:34.555Z,86
2015-10-08T06:58:34.808Z,86
2015-10-08T06:59:35.060Z,86
2015-10-08T07:00:35.314Z,86
2015-10-08T07:01:35.551Z,86
2015-10-08T07:02:35.803Z,86
2015-10-08T07:03:36.103Z,86
2015-10-08T07:04:37.841Z,86
2015-10-08T07:05:38.097Z,86
2015-10-08T07:06:38.350Z,86
2015-10-08T07:08:10.416Z,86
2015-10-08T07:08:38.855Z,86
2015-10-08T07:09:39.093Z,86
2015-10-08T07:10:39.596Z,86
2015-10-08T07:11:40.099Z,86
2015-10-08T07:12:40.352Z,86
2015-10-08T07:13:40.666Z,86
2015-10-08T07:15:14.216Z,86
2015-10-08T07:15:42.641Z,87
2015-10-08T07:16:43.159Z,86
2015-10-08T07:18:15.209Z,86
2015-10-08T07:19:43.901Z,86
2015-10-08T07:20:44.138Z,85
2015-10-08T07:21:43.876Z,86
2015-10-08T07:22:43.879Z,86
2015-10-08T07:23:43.928Z,86
2015-10-08T07:24:45.649Z,86
2015-10-08T07:25:45.652Z,86
2015-10-08T07:26:45.889Z,86
2015-10-08T07:27:46.142Z,86
2015-10-08T07:28:46.395Z,86
2015-10-08T07:29:46.632Z,86
2015-10-08T07:30:46.884Z,86
2015-10-08T07:31:47.123Z,85
2015-10-08T07:32:46.875Z,85
2015-10-08T07:33:46.659Z,86
2015-10-08T07:34:48.396Z,85
2015-10-08T07:35:48.149Z,85
2015-10-08T07:36:47.870Z,86
2015-10-08T07:37:47.857Z,86
2015-10-08T07:39:19.672Z,86
2015-10-08T07:39:47.847Z,85
2015-10-08T07:40:47.600Z,85
2015-10-08T07:41:47.318Z,85
2015-10-08T07:42:47.056Z,85
2015-10-08T07:43:46.856Z,85
2015-10-08T07:44:48.593Z,86
2015-10-08T07:45:48.564Z,85
2015-10-08T07:46:48.317Z,85
2015-10-08T07:47:48.054Z,85
2015-10-08T07:49:19.590Z,85
2015-10-08T07:49:47.512Z,86
2015-10-08T07:50:47.499Z,86
2015-10-08T07:51:47.502Z,85
2015-10-08T07:52:47.239Z,85
2015-10-08T07:54:18.839Z,85
2015-10-08T07:54:48.761Z,85
2015-10-08T07:55:48.435Z,85
2015-10-08T07:56:48.219Z,85
2015-10-08T07:57:48.191Z,85
2015-10-08T07:58:47.694Z,85
2015-10-08T07:59:47.415Z,85
2015-10-08T08:00:47.153Z,85
2015-10-08T08:01:46.905Z,85
2015-10-08T08:02:46.626Z,85
2015-10-08T08:03:46.425Z,85
2015-10-08T08:04:48.147Z,85
2015-10-08T08:05:47.884Z,85
2015-10-08T08:06:47.356Z,85
2015-10-08T08:08:18.653Z,85
2015-10-08T08:08:46.277Z,85
2015-10-08T08:09:45.745Z,85
2015-10-08T08:10:45.214Z,85
2015-10-08T08:12:16.745Z,85
2015-10-08T08:12:44.647Z,85
2015-10-08T08:13:44.382Z,85
2015-10-08T08:14:46.216Z,85
2015-10-08T08:15:45.964Z,85
2015-10-08T08:16:45.163Z,85
2015-10-08T08:17:44.335Z,85
2015-10-08T08:19:15.382Z,85
2015-10-08T08:19:42.789Z,85
2015-10-08T08:20:41.993Z,85
2015-10-08T08:21:41.228Z,85
2015-10-08T08:22:40.433Z,85
2015-10-08T08:23:39.982Z,85
2015-10-08T08:24:41.703Z,85
2015-10-08T08:25:41.192Z,85
2015-10-08T08:26:40.426Z,85
2015-10-08T08:27:39.631Z,84
2015-10-08T08:28:38.353Z,84
2015-10-08T08:29:37.044Z,84
2015-10-08T08:30:35.764Z,84
2015-10-08T08:31:34.486Z,84
2015-10-08T08:32:33.457Z,84
2015-10-08T08:33:32.460Z,84
2015-10-08T08:35:06.137Z,84
2015-10-08T08:35:32.902Z,84
2015-10-08T08:36:31.609Z,84
2015-10-08T08:37:30.329Z,84
2015-10-08T08:38:29.052Z,84
2015-10-08T08:39:27.742Z,83
2015-10-08T08:40:30.041Z,83
2015-10-08T08:41:32.341Z,83
2015-10-08T08:42:34.125Z,83
2015-10-08T08:43:36.238Z,83
2015-10-08T08:44:37.943Z,83
2015-10-08T08:45:40.243Z,83
2015-10-08T08:46:42.557Z,83
2015-10-08T08:47:44.920Z,83
2015-10-08T08:48:47.142Z,83
2015-10-08T08:49:48.926Z,83
2015-10-08T08:50:50.710Z,82
2015-10-08T08:51:52.509Z,82
2015-10-08T08:52:54.028Z,82
2015-10-08T08:54:27.705Z,82
2015-10-08T08:54:57.612Z,82
2015-10-08T08:55:59.395Z,82
2015-10-08T08:57:01.179Z,82
2015-10-08T08:58:02.964Z,83
2015-10-08T08:59:05.232Z,82
2015-10-08T09:00:06.798Z,82
2015-10-08T09:01:08.565Z,83
2015-10-08T09:02:10.615Z,82
2015-10-08T09:03:12.135Z,82
2015-10-08T09:04:13.730Z,82
2015-10-08T09:05:15.468Z,83
2015-10-08T09:06:17.486Z,82
2015-10-08T09:07:19.020Z,82
2015-10-08T09:08:20.554Z,82
2015-10-08T09:09:22.072Z,81
2015-10-08T09:10:23.106Z,81
2015-10-08T09:11:23.859Z,82
2015-10-08T09:12:25.142Z,81
2015-10-08T18:56:03.681Z,90
2015-10-08T18:57:34.219Z,90
2015-10-08T18:58:32.987Z,90
2015-10-08T18:59:02.894Z,90
2015-10-08T19:00:01.599Z,90
2015-10-08T19:01:00.321Z,90
2015-10-08T19:01:59.028Z,90
2015-10-08T19:02:57.733Z,90
2015-10-08T19:03:56.454Z,90
2015-10-08T19:04:55.161Z,90
2015-10-08T19:05:53.881Z,90
2015-10-08T19:06:52.572Z,90
2015-10-08T19:07:51.340Z,90
2015-10-08T19:08:53.078Z,90
2015-10-08T19:09:51.783Z,90
2015-10-08T19:10:50.489Z,90
2015-10-08T19:11:49.211Z,90
2015-10-08T19:12:47.916Z,90
2015-10-08T19:13:46.682Z,90
2015-10-08T19:14:45.325Z,90
2015-10-08T19:15:44.046Z,90
2015-10-08T19:16:42.753Z,90
2015-10-08T19:18:13.353Z,90
2015-10-08T19:18:43.400Z,90
2015-10-08T19:20:13.795Z,90
2015-10-08T19:21:12.516Z,90
2015-10-08T19:22:38.113Z,90
2015-10-08T19:24:08.634Z,90
2015-10-08T19:24:35.791Z,90
2015-10-08T19:25:34.496Z,90
2015-10-08T19:26:33.218Z,90
2015-10-08T19:27:31.970Z,90
2015-10-08T19:28:33.707Z,90
2015-10-08T19:29:32.413Z,90
2015-10-08T19:30:31.135Z,90
2015-10-08T19:31:30.091Z,90
2015-10-08T19:32:28.796Z,90
2015-10-08T19:33:27.768Z,90
2015-10-08T19:34:26.489Z,90
2015-10-08T19:35:25.196Z,90
2015-10-08T19:36:24.166Z,90
2015-10-08T19:37:23.184Z,90
2015-10-08T19:38:24.906Z,90
2015-10-08T19:39:23.878Z,90
2015-10-08T19:40:23.115Z,90
2015-10-08T19:41:22.070Z,90
2015-10-08T19:42:21.042Z,90
2015-10-08T19:43:52.310Z,90
2015-10-08T19:45:18.456Z,90
2015-10-08T19:47:48.775Z,90
2015-10-08T19:48:18.684Z,90
2015-10-08T19:50:16.877Z,90
2015-10-08T19:51:16.114Z,90
2015-10-08T19:52:15.332Z,90
2015-10-08T19:53:14.554Z,90
2015-10-08T19:54:45.607Z,90
2015-10-08T19:55:13.013Z,90
2015-10-08T19:56:44.053Z,90
2015-10-08T19:57:11.507Z,90
2015-10-08T19:58:13.245Z,90
2015-10-08T19:59:12.466Z,90
2015-10-08T20:00:11.687Z,90
2015-10-08T20:01:10.909Z,90
2015-10-08T20:02:10.130Z,90
2015-10-08T20:03:09.367Z,90
2015-10-08T20:04:08.573Z,90
2015-10-08T20:05:39.629Z,90
2015-10-08T20:07:06.303Z,90
2015-10-08T20:08:08.025Z,90
2015-10-08T20:09:07.262Z,90
2015-10-08T20:10:06.483Z,90
2015-10-08T20:11:05.705Z,90
2015-10-08T20:12:04.942Z,90
2015-10-08T20:13:04.476Z,90
2015-10-08T20:14:03.370Z,90
2015-10-08T20:15:02.606Z,90
2015-10-08T20:16:01.813Z,90
2015-10-08T20:17:01.097Z,90
2015-10-08T20:18:02.833Z,90
2015-10-08T20:19:02.055Z,90
2015-10-08T20:20:01.292Z,90
2015-10-08T20:21:00.576Z,90
2015-10-08T20:21:59.720Z,90
2015-10-08T20:23:30.769Z,90
2015-10-08T20:23:58.177Z,90
2015-10-08T20:24:57.396Z,90
2015-10-08T20:25:56.618Z,90
2015-10-08T20:26:55.902Z,90
2015-10-08T20:27:57.624Z,90
2015-10-08T20:28:56.844Z,90
2015-10-08T20:29:56.191Z,90
2015-10-08T20:30:55.304Z,90
2015-10-08T20:31:54.525Z,90
2015-10-08T20:32:53.747Z,90
2015-10-08T20:33:52.969Z,90
2015-10-08T20:34:52.190Z,90
2015-10-08T20:35:51.427Z,90
2015-10-08T20:36:50.696Z,90
2015-10-08T20:37:52.432Z,90
2015-10-08T20:38:51.670Z,90
2015-10-08T20:39:50.875Z,90
2015-10-08T20:40:50.112Z,90
2015-10-08T20:41:49.334Z,90
2015-10-08T20:42:48.555Z,90
2015-10-08T20:44:19.608Z,90
2015-10-08T20:44:46.999Z,90
2015-10-08T20:45:46.221Z,90
2015-10-08T20:46:45.519Z,91
2015-10-08T20:47:47.241Z,91
2015-10-08T20:48:46.979Z,91
2015-10-08T20:49:46.466Z,90
2015-10-08T20:50:45.687Z,91
2015-10-08T20:51:45.174Z,91
2015-10-08T20:53:44.132Z,90
2015-10-08T20:54:43.354Z,91
2015-10-08T20:55:42.840Z,91
2015-10-08T20:56:42.375Z,91
2015-10-08T20:57:44.112Z,91
2015-10-08T20:58:43.599Z,91
2015-10-08T20:59:43.071Z,91
2015-10-08T21:00:42.558Z,91
2015-10-08T21:01:42.029Z,91
2015-10-08T21:02:41.782Z,91
2015-10-08T21:03:41.501Z,91
2015-10-08T21:04:41.237Z,91
2015-10-08T21:05:40.976Z,91
2015-10-08T21:06:40.775Z,91
2015-10-08T21:07:42.496Z,91
2015-10-08T21:08:42.249Z,91
2015-10-08T21:10:13.801Z,91
2015-10-08T21:10:41.723Z,91
2015-10-08T21:11:41.460Z,91
2015-10-08T21:12:41.212Z,91
2015-10-08T21:13:40.935Z,91
2015-10-08T21:14:40.688Z,91
2015-10-08T21:15:40.676Z,91
2015-10-08T21:16:40.209Z,91
2015-10-08T21:17:41.946Z,91
2015-10-08T21:18:41.668Z,91
2015-10-08T21:19:41.514Z,91
2015-10-08T21:20:41.142Z,91
2015-10-08T21:21:40.879Z,91
2015-10-08T21:22:40.616Z,91
2015-10-08T21:23:40.354Z,91
2015-10-08T21:24:40.106Z,91
2015-10-08T21:25:39.828Z,91
2015-10-08T21:26:39.626Z,91
2015-10-08T21:27:41.365Z,91
2015-10-08T21:28:41.102Z,91
2015-10-08T21:29:40.854Z,91
2015-10-08T21:31:12.406Z,91
2015-10-08T21:31:40.328Z,91
2015-10-08T21:32:40.065Z,91
2015-10-08T21:34:11.617Z,91
2015-10-08T21:34:39.539Z,91
2015-10-08T21:35:39.261Z,91
2015-10-08T21:36:39.061Z,91
2015-10-08T21:37:40.797Z,91
2015-10-08T21:38:40.534Z,91
2015-10-08T21:39:40.397Z,91
2015-10-08T21:40:40.009Z,91
2015-10-08T21:41:39.762Z,91
2015-10-08T21:42:39.483Z,91
2015-10-08T21:43:39.237Z,91
2015-10-08T21:44:38.958Z,91
2015-10-08T21:45:38.711Z,91
2015-10-08T21:46:38.510Z,91
2015-10-08T21:47:40.231Z,91
2015-10-08T21:48:40.206Z,91
2015-10-08T21:49:39.710Z,91
2015-10-08T21:50:39.431Z,91
2015-10-08T21:52:10.996Z,91
2015-10-08T21:52:38.921Z,91
2015-10-08T21:53:38.657Z,91
2015-10-08T21:55:10.223Z,91
2015-10-08T21:55:38.132Z,91
2015-10-08T21:56:37.915Z,91
2015-10-08T21:57:39.701Z,91
2015-10-08T21:58:39.390Z,91
2015-10-08T21:59:39.143Z,91
2015-10-08T22:00:38.881Z,91
2015-10-08T22:01:38.618Z,91
2015-10-08T22:02:38.337Z,91
2015-10-08T22:03:38.089Z,91
2015-10-08T22:04:37.826Z,91
2015-10-08T22:05:37.563Z,91
2015-10-08T22:06:37.362Z,91
2015-10-08T22:07:39.084Z,91
2015-10-08T22:08:38.821Z,91
2015-10-08T22:09:38.559Z,91
2015-10-08T22:10:38.295Z,91
2015-10-08T22:11:38.033Z,91
2015-10-08T22:12:37.786Z,91
2015-10-08T22:13:37.506Z,91
2015-10-08T22:14:37.244Z,91
2015-10-08T22:15:36.981Z,91
2015-10-08T22:16:36.796Z,91
2015-10-08T22:17:38.503Z,91
2015-10-08T22:18:38.256Z,91
2015-10-08T22:19:37.991Z,91
2015-10-08T22:20:37.978Z,91
2015-10-08T22:21:37.466Z,91
2015-10-08T22:22:37.203Z,91
2015-10-08T22:23:36.941Z,91
2015-10-08T22:24:36.677Z,91
2015-10-08T22:25:36.414Z,91
2015-10-08T22:26:36.199Z,91
2015-10-08T22:27:37.936Z,91
2015-10-08T22:28:37.674Z,91
2015-10-08T22:29:37.411Z,91
2015-10-08T22:30:37.164Z,91
2015-10-08T22:31:36.885Z,91
2015-10-08T22:33:08.437Z,91
2015-10-08T22:33:36.344Z,91
2015-10-08T22:35:07.927Z,91
2015-10-08T22:35:35.833Z,91
2015-10-08T22:36:35.617Z,91
2015-10-08T22:37:37.370Z,91
2015-10-08T22:38:37.108Z,91
2015-10-08T22:39:36.828Z,91
2015-10-08T22:41:36.286Z,91
2015-10-08T22:42:36.039Z,91
2015-10-08T22:43:35.777Z,91
2015-10-08T22:44:35.514Z,91
2015-10-08T22:45:35.252Z,91
2015-10-08T22:46:35.036Z,91
2015-10-08T22:47:36.773Z,91
2015-10-08T22:48:36.510Z,91
2015-10-08T22:49:36.247Z,91
2015-10-08T22:50:35.983Z,91
2015-10-08T22:51:35.721Z,91
2015-10-08T22:52:35.458Z,91
2015-10-08T22:53:35.194Z,91
2015-10-08T22:54:34.933Z,91
2015-10-08T22:55:34.669Z,91
2015-10-08T22:56:34.485Z,91
2015-10-08T22:57:36.191Z,91
2015-10-08T22:58:35.944Z,91
2015-10-08T23:00:07.477Z,91
2015-10-08T23:00:35.402Z,91
2015-10-08T23:01:35.121Z,91
2015-10-08T23:02:34.873Z,91
2015-10-08T23:03:34.594Z,91
2015-10-08T23:04:34.347Z,91
2015-10-08T23:05:34.085Z,91
2015-10-08T23:06:33.868Z,91
2015-10-08T23:08:07.421Z,91
2015-10-08T23:08:35.327Z,91
2015-10-08T23:09:35.064Z,91
2015-10-08T23:10:34.818Z,91
2015-10-08T23:11:34.539Z,91
2015-10-08T23:12:34.308Z,91
2015-10-08T23:13:34.014Z,91
2015-10-08T23:14:33.736Z,91
2015-10-08T23:15:33.488Z,91
2015-10-08T23:17:05.088Z,91
2015-10-08T23:17:35.009Z,91
2015-10-08T23:18:34.761Z,91
2015-10-08T23:19:34.468Z,91
2015-10-08T23:20:34.209Z,91
2015-10-08T23:21:33.946Z,91
2015-10-08T23:23:05.513Z,91
2015-10-08T23:23:33.419Z,91
2015-10-08T23:24:33.156Z,91
2015-10-08T23:27:04.508Z,91
2015-10-08T23:27:34.414Z,91
2015-10-08T23:28:34.136Z,91
2015-10-08T23:29:33.873Z,91
2015-10-08T23:30:33.626Z,91
2015-10-08T23:31:33.348Z,91
2015-10-08T23:32:33.101Z,91
2015-10-08T23:33:32.822Z,91
2015-10-08T23:34:32.559Z,91
2015-10-08T23:35:32.280Z,91
2015-10-08T23:36:32.080Z,91
2015-10-08T23:37:33.817Z,91
2015-10-08T23:38:33.539Z,91
2015-10-08T23:39:33.276Z,91
2015-10-08T23:40:33.014Z,91
2015-10-08T23:41:32.750Z,91
2015-10-08T23:42:32.738Z,91
2015-10-08T23:43:32.491Z,91
2015-10-08T23:44:32.211Z,91
2015-10-08T23:45:31.933Z,91
2015-10-08T23:46:31.733Z,91
2015-10-08T23:47:33.469Z,91
2015-10-08T23:48:33.458Z,91
2015-10-08T23:49:33.179Z,91
2015-10-08T23:50:32.915Z,91
2015-10-08T23:51:32.653Z,91
2015-10-08T23:52:32.391Z,91
2015-10-08T23:53:32.393Z,91
2015-10-08T23:54:32.099Z,91
2015-10-08T23:55:31.833Z,91
2015-10-08T23:56:31.633Z,91
2015-10-08T23:57:33.355Z,91
2015-10-08T23:58:33.091Z,91
